createdAt,value
2022-12-03T06:58:21.059Z,101002.91
2022-12-03T07:00:47.957Z,101012.56
2022-12-03T07:03:14.457Z,101014.53
2022-12-03T07:05:41.359Z,101008.31
2022-12-03T07:08:07.809Z,101005.09
2022-12-03T07:10:34.613Z,101011.19
2022-12-03T07:13:01.087Z,101003.03
2022-12-03T07:15:27.662Z,101005.19
2022-12-03T07:17:54.368Z,101012.31
2022-12-03T07:20:20.940Z,101012.00
2022-12-03T07:22:47.455Z,101006.47
2022-12-03T07:25:19.527Z,101007.00
2022-12-03T07:27:49.480Z,101017.38
2022-12-03T07:30:16.413Z,101010.94
2022-12-03T07:32:43.711Z,101008.09
2022-12-03T07:35:10.318Z,101016.78
2022-12-03T07:37:37.085Z,101012.00
2022-12-03T07:40:05.393Z,101013.44
2022-12-03T07:42:32.125Z,101011.19
2022-12-03T07:44:58.603Z,101010.38
2022-12-03T07:47:25.970Z,101013.84
2022-12-03T07:49:52.346Z,101015.25
2022-12-03T07:52:18.934Z,101017.06
2022-12-03T07:54:47.871Z,101011.38
2022-12-03T07:57:14.421Z,101009.31
2022-12-03T07:59:41.122Z,101011.28
2022-12-03T08:02:09.054Z,101010.75
2022-12-03T08:04:35.829Z,101014.81
2022-12-03T08:07:02.358Z,101018.34
2022-12-03T08:09:31.319Z,101024.19
2022-12-03T08:12:02.791Z,101026.13
2022-12-03T08:14:29.630Z,101027.88
2022-12-03T08:16:56.218Z,101028.69
2022-12-03T08:19:23.026Z,101031.44
2022-12-03T08:21:49.547Z,101024.00
2022-12-03T08:24:18.787Z,101035.19
2022-12-03T08:26:47.332Z,101029.06
2022-12-03T08:29:16.881Z,101033.56
2022-12-03T08:31:49.243Z,101036.72
2022-12-03T08:34:20.166Z,101042.13
2022-12-03T08:36:49.653Z,101034.78
2022-12-03T08:39:35.615Z,101037.22
2022-12-03T08:42:31.508Z,101039.25
2022-12-03T08:45:30.259Z,101039.25
2022-12-03T08:47:59.581Z,101031.75
2022-12-03T08:50:31.699Z,101029.06
2022-12-03T08:53:08.258Z,101039.31
2022-12-03T08:55:37.714Z,101041.69
2022-12-03T08:58:27.911Z,101048.22
2022-12-03T09:01:15.177Z,101042.59
2022-12-03T09:03:51.594Z,101040.78
2022-12-03T09:06:18.417Z,101041.91
2022-12-03T09:08:45.137Z,101043.53
2022-12-03T09:11:12.025Z,101043.53
2022-12-03T09:13:39.329Z,101045.53
2022-12-03T09:16:06.224Z,101044.66
2022-12-03T09:18:32.768Z,101031.69
2022-12-03T09:20:59.514Z,101041.25
2022-12-03T09:23:26.462Z,101043.00
2022-12-03T09:25:52.983Z,101030.44
2022-12-03T09:28:19.831Z,101035.56
2022-12-03T09:30:46.552Z,101036.34
2022-12-03T09:33:14.076Z,101031.25
2022-12-03T09:35:40.610Z,101029.00
2022-12-03T09:38:07.874Z,101033.31
2022-12-03T09:40:34.600Z,101031.59
2022-12-03T09:43:01.235Z,101032.78
2022-12-03T09:45:27.703Z,101027.56
2022-12-03T09:47:54.947Z,101024.69
2022-12-03T09:50:26.885Z,101028.44
2022-12-03T09:52:58.390Z,101024.56
2022-12-03T09:55:27.458Z,101019.53
2022-12-03T09:57:56.170Z,101013.69
2022-12-03T10:00:25.600Z,101015.06
2022-12-03T10:02:56.306Z,101011.75
2022-12-03T10:05:23.630Z,101011.13
2022-12-03T10:07:51.696Z,101017.41
2022-12-03T10:10:21.994Z,101013.66
2022-12-03T10:12:50.321Z,101009.22
2022-12-03T10:15:19.275Z,101012.75
2022-12-03T10:17:47.809Z,101012.75
2022-12-03T10:20:16.473Z,101005.06
2022-12-03T10:22:43.960Z,101000.88
2022-12-03T10:25:12.887Z,101000.88
2022-12-03T10:27:40.879Z,100996.50
2022-12-03T10:30:22.240Z,101001.75
2022-12-03T10:32:50.959Z,100992.63
2022-12-03T10:35:22.053Z,100988.53
2022-12-03T10:37:58.118Z,100988.03
2022-12-03T10:40:27.027Z,100978.41
2022-12-03T10:43:13.554Z,100977.75
2022-12-03T10:45:40.514Z,100969.84
2022-12-03T10:48:27.333Z,100978.97
2022-12-03T10:51:03.138Z,100969.72
2022-12-03T10:53:32.048Z,100973.94
2022-12-03T10:56:01.935Z,100965.31
2022-12-03T10:58:31.441Z,100972.47
2022-12-03T11:01:01.206Z,100960.88
2022-12-03T11:03:30.034Z,100960.75
2022-12-03T11:05:57.658Z,100952.25
2022-12-03T11:08:26.490Z,100949.66
2022-12-03T11:11:02.029Z,100948.16
2022-12-03T11:13:45.174Z,100946.59
2022-12-03T11:16:13.770Z,100934.50
2022-12-03T11:18:40.418Z,100945.34
2022-12-03T11:21:12.449Z,100933.78
2022-12-03T11:23:44.988Z,100930.81
2022-12-03T11:26:30.584Z,100926.72
2022-12-03T11:28:58.857Z,100931.56
2022-12-03T11:31:43.801Z,100933.00
2022-12-03T11:34:22.528Z,100933.38
2022-12-03T11:37:11.070Z,100928.13
2022-12-03T11:39:50.356Z,100930.00
2022-12-03T11:42:25.735Z,100928.72
2022-12-03T11:45:16.507Z,100922.97
2022-12-03T11:47:47.641Z,100933.28
2022-12-03T11:50:24.121Z,100925.84
2022-12-03T11:52:59.271Z,100927.09
2022-12-03T11:55:34.318Z,100926.94
2022-12-03T11:58:04.299Z,100908.59
2022-12-03T12:00:31.561Z,100921.47
2022-12-03T12:02:59.086Z,100910.97
2022-12-03T12:05:35.481Z,100900.94
2022-12-03T12:08:03.164Z,100907.69
2022-12-03T12:10:43.216Z,100907.84
2022-12-03T12:13:28.496Z,100900.75
2022-12-03T12:15:54.971Z,100897.97
2022-12-03T12:18:40.902Z,100901.66
2022-12-03T12:21:43.099Z,100889.03
2022-12-03T12:24:43.076Z,100887.91
2022-12-03T12:27:17.741Z,100881.66
2022-12-03T12:29:47.130Z,100884.13
2022-12-03T12:32:19.061Z,100879.28
2022-12-03T12:34:48.650Z,100871.03
2022-12-03T12:37:32.671Z,100873.50
2022-12-03T12:40:01.999Z,100863.88
2022-12-03T12:42:42.878Z,100872.91
2022-12-03T12:45:16.266Z,100879.66
2022-12-03T12:47:48.157Z,100870.41
2022-12-03T12:50:15.848Z,100867.44
2022-12-03T12:52:54.996Z,100861.56
2022-12-03T12:55:23.026Z,100859.72
2022-12-03T12:57:50.362Z,100853.84
2022-12-03T13:00:19.164Z,100855.72
2022-12-03T13:03:05.060Z,100851.56
2022-12-03T13:05:44.332Z,100851.25
2022-12-03T13:08:22.646Z,100845.22
2022-12-03T13:10:51.349Z,100851.59
2022-12-03T13:13:23.112Z,100841.25
2022-12-03T13:15:59.673Z,100848.59
2022-12-03T13:18:45.107Z,100849.38
2022-12-03T13:21:27.077Z,100841.75
2022-12-03T13:23:55.895Z,100834.47
2022-12-03T13:26:40.105Z,100834.66
2022-12-03T13:29:14.959Z,100839.50
2022-12-03T13:31:46.588Z,100835.34
2022-12-03T13:34:17.897Z,100831.81
2022-12-03T13:36:49.447Z,100830.75
2022-12-03T13:39:27.046Z,100838.13
2022-12-03T13:42:12.932Z,100824.47
2022-12-03T13:44:45.280Z,100824.03
2022-12-03T13:47:14.842Z,100826.66
2022-12-03T13:49:43.447Z,100827.47
2022-12-03T13:52:15.595Z,100825.91
2022-12-03T13:54:42.005Z,100819.88
2022-12-03T13:57:08.639Z,100817.41
2022-12-03T13:59:35.275Z,100823.88
2022-12-03T14:02:01.777Z,100829.72
2022-12-03T14:04:28.310Z,100825.31
2022-12-03T14:06:54.875Z,100818.84
2022-12-03T14:09:21.639Z,100814.22
2022-12-03T14:12:07.022Z,100819.19
2022-12-03T14:14:33.949Z,100811.53
2022-12-03T14:17:00.632Z,100803.94
2022-12-03T14:19:27.340Z,100799.75
2022-12-03T14:21:53.938Z,100797.31
2022-12-03T14:24:20.839Z,100793.06
2022-12-03T14:26:47.288Z,100791.78
2022-12-03T14:29:13.914Z,100789.84
2022-12-03T14:31:40.582Z,100795.34
2022-12-03T14:34:07.121Z,100796.84
2022-12-03T14:36:33.912Z,100792.16
2022-12-03T14:39:00.463Z,100794.91
2022-12-03T14:41:45.894Z,100792.63
2022-12-03T14:44:12.534Z,100791.28
2022-12-03T14:46:38.970Z,100786.13
2022-12-03T14:49:06.304Z,100795.38
2022-12-03T14:51:32.767Z,100796.19
2022-12-03T14:53:59.209Z,100803.28
2022-12-03T14:56:25.695Z,100800.88
2022-12-03T14:58:52.558Z,100796.50
2022-12-03T15:01:19.128Z,100795.41
2022-12-03T15:03:45.809Z,100799.91
2022-12-03T15:06:12.578Z,100798.59
2022-12-03T15:08:39.036Z,100792.94
2022-12-03T15:11:05.678Z,100796.19
2022-12-03T15:13:32.494Z,100808.53
2022-12-03T15:15:59.410Z,100805.88
2022-12-03T15:18:25.879Z,100806.22
2022-12-03T15:20:52.355Z,100801.34
2022-12-03T15:23:20.067Z,100805.06
2022-12-03T15:25:47.199Z,100807.34
2022-12-03T15:28:14.028Z,100810.41
2022-12-03T15:30:40.808Z,100819.19
2022-12-03T15:33:08.009Z,100817.88
2022-12-03T15:35:34.385Z,100816.91
2022-12-03T15:38:01.515Z,100813.69
2022-12-03T15:40:28.372Z,100819.00
2022-12-03T15:42:54.888Z,100815.75
2022-12-03T15:45:21.411Z,100815.63
2022-12-03T15:47:48.224Z,100815.94
2022-12-03T15:50:14.957Z,100813.00
2022-12-03T15:52:41.999Z,100801.66
2022-12-03T15:55:09.299Z,100805.88
2022-12-03T15:57:36.147Z,100808.97
2022-12-03T16:00:04.291Z,100805.69
2022-12-03T16:02:33.991Z,100804.22
2022-12-03T16:05:04.914Z,100803.94
2022-12-03T16:07:31.523Z,100809.75
2022-12-03T16:09:58.520Z,100801.78
2022-12-03T16:12:25.062Z,100796.75
2022-12-03T16:14:51.812Z,100809.78
2022-12-03T16:17:18.415Z,100799.84
2022-12-03T16:19:45.512Z,100800.41
2022-12-03T16:22:12.635Z,100799.63
2022-12-03T16:24:39.406Z,100809.03
2022-12-03T16:27:05.960Z,100798.97
2022-12-03T16:29:32.445Z,100794.19
2022-12-03T16:31:59.497Z,100801.56
2022-12-03T16:34:26.231Z,100797.50
2022-12-03T16:36:52.882Z,100805.59
2022-12-03T16:39:19.343Z,100805.91
2022-12-03T16:41:46.027Z,100806.16
2022-12-03T16:44:20.276Z,100808.41
2022-12-03T16:46:47.029Z,100795.69
2022-12-03T16:49:13.553Z,100806.19
2022-12-03T16:51:40.171Z,100805.31
2022-12-03T16:54:06.650Z,100798.63
2022-12-03T16:56:33.349Z,100797.31
2022-12-03T16:58:59.946Z,100793.44
2022-12-03T17:01:26.644Z,100796.88
2022-12-03T17:03:53.594Z,100796.19
2022-12-03T17:06:20.042Z,100790.50
2022-12-03T17:08:49.708Z,100799.00
2022-12-03T17:11:17.006Z,100801.78
2022-12-03T17:13:43.484Z,100802.56
2022-12-03T17:16:10.072Z,100799.94
2022-12-03T17:18:36.554Z,100794.28
2022-12-03T17:21:03.092Z,100790.03
2022-12-03T17:23:31.117Z,100789.88
2022-12-03T17:25:57.612Z,100785.31
2022-12-03T17:28:24.054Z,100794.25
2022-12-03T17:30:50.721Z,100797.34
2022-12-03T17:33:17.710Z,100789.53
2022-12-03T17:35:45.478Z,100792.94
2022-12-03T17:38:12.352Z,100788.38
2022-12-03T17:40:38.940Z,100781.00
2022-12-03T17:43:05.591Z,100780.28
2022-12-03T17:45:32.253Z,100785.88
2022-12-03T17:47:58.844Z,100787.44
2022-12-03T17:50:25.386Z,100779.34
2022-12-03T17:52:51.983Z,100784.19
2022-12-03T17:55:29.738Z,100776.78
2022-12-03T17:58:04.348Z,100775.44
2022-12-03T18:00:33.022Z,100774.44
2022-12-03T18:02:59.618Z,100776.09
2022-12-03T18:05:26.139Z,100769.13
2022-12-03T18:07:52.670Z,100769.94
2022-12-03T18:10:19.226Z,100764.69
2022-12-03T18:12:45.852Z,100770.38
2022-12-03T18:15:12.471Z,100763.28
2022-12-03T18:17:39.252Z,100767.16
2022-12-03T18:20:06.816Z,100766.50
2022-12-03T18:22:34.606Z,100769.09
2022-12-03T18:25:01.201Z,100761.44
2022-12-03T18:27:27.823Z,100767.31
2022-12-03T18:29:54.718Z,100756.31
2022-12-03T18:32:28.791Z,100760.81
2022-12-03T18:35:03.369Z,100763.25
2022-12-03T18:37:35.803Z,100765.84
2022-12-03T18:40:12.511Z,100751.13
2022-12-03T18:42:44.552Z,100756.94
2022-12-03T18:45:12.951Z,100758.97
2022-12-03T18:47:39.902Z,100750.22
2022-12-03T18:50:08.170Z,100753.59
2022-12-03T18:52:56.796Z,100740.31
2022-12-03T18:55:25.642Z,100733.28
2022-12-03T18:57:57.329Z,100750.16
2022-12-03T19:00:23.945Z,100740.94
2022-12-03T19:03:04.863Z,100735.97
2022-12-03T19:05:33.873Z,100751.78
2022-12-03T19:08:00.646Z,100749.69
2022-12-03T19:10:27.603Z,100749.47
2022-12-03T19:13:03.867Z,100749.47
2022-12-03T19:15:30.734Z,100754.91
2022-12-03T19:17:57.313Z,100758.63
2022-12-03T19:20:24.215Z,100742.91
2022-12-03T19:22:50.838Z,100741.13
2022-12-03T19:25:17.565Z,100746.91
2022-12-03T19:27:49.137Z,100742.88
2022-12-03T19:30:18.445Z,100759.91
2022-12-03T19:32:51.466Z,100747.22
2022-12-03T19:35:19.193Z,100746.53
2022-12-03T19:37:47.900Z,100738.31
2022-12-03T19:47:37.751Z,100740.84
2022-12-03T19:50:05.778Z,100743.38
2022-12-03T19:52:35.208Z,100749.38
2022-12-03T19:55:02.198Z,100749.53
2022-12-03T19:57:28.728Z,100746.78
2022-12-03T19:59:55.528Z,100738.69
2022-12-03T20:02:22.860Z,100734.97
2022-12-03T20:04:49.471Z,100736.22
2022-12-03T20:07:16.034Z,100748.06
2022-12-03T20:09:42.720Z,100743.91
2022-12-03T20:12:09.250Z,100740.34
2022-12-03T20:14:35.689Z,100737.41
2022-12-03T20:17:02.437Z,100738.84
2022-12-03T20:19:29.172Z,100741.94
2022-12-03T20:22:02.077Z,100744.16
2022-12-03T20:24:29.482Z,100739.78
2022-12-03T20:26:56.095Z,100744.03
2022-12-03T20:29:22.758Z,100742.03
2022-12-03T20:31:49.306Z,100730.59
2022-12-03T20:34:15.814Z,100734.47
2022-12-03T20:36:44.082Z,100733.03
2022-12-03T20:39:10.826Z,100736.91
2022-12-03T20:41:37.894Z,100733.84
2022-12-03T20:44:07.241Z,100738.22
2022-12-03T20:46:33.714Z,100731.22
2022-12-03T20:49:00.446Z,100729.16
2022-12-03T20:51:29.938Z,100728.94
2022-12-03T20:53:58.747Z,100734.50
2022-12-03T20:56:31.105Z,100727.16
2022-12-03T20:59:00.827Z,100733.81
2022-12-03T21:01:28.012Z,100733.63
2022-12-03T21:03:56.595Z,100734.78
2022-12-03T21:06:25.382Z,100725.22
2022-12-03T21:08:53.759Z,100736.38
2022-12-03T21:11:24.090Z,100742.16
2022-12-03T21:13:51.683Z,100733.16
2022-12-03T21:16:45.467Z,100732.22
2022-12-03T21:19:10.420Z,100731.00
2022-12-03T21:21:37.324Z,100727.22
2022-12-03T21:24:04.298Z,100729.47
2022-12-03T21:26:30.891Z,100732.72
2022-12-03T21:28:57.434Z,100722.31
2022-12-03T21:31:26.449Z,100730.09
2022-12-03T21:33:54.210Z,100725.91
2022-12-03T21:36:20.779Z,100722.69
2022-12-03T21:38:48.178Z,100723.41
2022-12-03T21:41:14.981Z,100723.78
2022-12-03T21:43:42.238Z,100717.75
2022-12-03T21:47:11.018Z,100727.13
2022-12-03T21:48:56.876Z,100725.22
2022-12-03T21:51:23.517Z,100722.44
2022-12-03T21:53:50.785Z,100716.41
2022-12-03T21:56:18.997Z,100725.16
2022-12-03T21:58:46.631Z,100720.84
2022-12-03T22:01:16.663Z,100715.97
2022-12-03T22:03:43.462Z,100721.47
2022-12-03T22:06:10.791Z,100719.38
2022-12-03T22:08:38.283Z,100715.66
2022-12-03T22:11:05.911Z,100717.25
2022-12-03T22:13:32.343Z,100714.16
2022-12-03T22:15:59.058Z,100712.75
2022-12-03T22:18:25.932Z,100714.53
2022-12-03T22:20:52.402Z,100712.25
2022-12-03T22:23:19.113Z,100718.03
2022-12-03T22:25:45.508Z,100716.13
2022-12-03T22:28:11.823Z,100714.63
2022-12-03T22:30:41.508Z,100710.31
2022-12-03T22:33:08.565Z,100703.84
2022-12-03T22:35:34.989Z,100704.28
2022-12-03T22:38:01.598Z,100705.25
2022-12-03T22:40:28.181Z,100705.25
2022-12-03T22:42:54.801Z,100705.25
2022-12-03T22:45:21.237Z,100702.84
2022-12-03T22:47:48.136Z,100693.91
2022-12-03T22:50:14.796Z,100698.78
2022-12-03T22:52:41.615Z,100700.44
2022-12-03T22:55:08.731Z,100700.25
2022-12-03T22:57:35.351Z,100693.03
2022-12-03T23:00:02.772Z,100694.19
2022-12-03T23:02:30.541Z,100689.16
2022-12-03T23:04:58.017Z,100694.53
2022-12-03T23:07:24.646Z,100690.13
2022-12-03T23:09:51.207Z,100696.59
2022-12-03T23:12:17.929Z,100692.88
2022-12-03T23:14:44.503Z,100697.09
2022-12-03T23:17:11.249Z,100675.56
2022-12-03T23:19:37.795Z,100676.06
2022-12-03T23:22:04.310Z,100681.13
2022-12-03T23:24:31.131Z,100688.41
2022-12-03T23:26:57.545Z,100681.94
2022-12-03T23:29:24.168Z,100676.53
2022-12-03T23:31:50.670Z,100677.53
2022-12-03T23:34:17.466Z,100675.56
2022-12-03T23:36:44.464Z,100681.94
2022-12-03T23:39:10.969Z,100683.50
2022-12-03T23:41:37.760Z,100677.31
2022-12-03T23:44:04.453Z,100676.53
2022-12-03T23:46:31.042Z,100680.47
2022-12-03T23:48:58.910Z,100679.28
2022-12-03T23:51:26.290Z,100674.94
2022-12-03T23:53:54.451Z,100665.22
2022-12-03T23:56:24.067Z,100669.91
2022-12-03T23:58:51.302Z,100677.66
